createdAt,value
2023-03-05T00:01:11.151Z,7.43
2023-03-05T00:03:37.788Z,7.45
2023-03-05T00:06:04.870Z,7.00
2023-03-05T00:08:32.161Z,7.14
2023-03-05T00:11:03.275Z,7.22
2023-03-05T00:13:30.211Z,6.74
2023-03-05T00:15:56.902Z,6.67
2023-03-05T00:18:23.980Z,6.93
2023-03-05T00:20:50.795Z,6.99
2023-03-05T00:23:17.325Z,7.15
2023-03-05T00:25:44.287Z,7.37
2023-03-05T00:28:10.768Z,7.32
2023-03-05T00:30:37.253Z,7.11
2023-03-05T00:33:03.919Z,7.05
2023-03-05T00:35:30.554Z,7.00
2023-03-05T00:37:57.834Z,7.12
2023-03-05T00:40:24.408Z,7.20
2023-03-05T00:42:50.944Z,6.94
2023-03-05T00:45:17.446Z,6.89
2023-03-05T00:47:43.929Z,7.04
2023-03-05T00:50:11.115Z,7.03
2023-03-05T00:52:37.662Z,6.64
2023-03-05T00:55:04.497Z,6.80
2023-03-05T00:57:31.412Z,6.76
2023-03-05T00:59:57.953Z,6.52
2023-03-05T01:02:25.978Z,6.78
2023-03-05T01:04:52.522Z,6.82
2023-03-05T01:07:19.017Z,6.68
2023-03-05T01:09:45.585Z,6.80
2023-03-05T01:12:12.079Z,6.58
2023-03-05T01:14:38.529Z,6.64
2023-03-05T01:17:05.204Z,6.74
2023-03-05T01:19:31.864Z,6.98
2023-03-05T01:21:59.088Z,6.78
2023-03-05T01:24:25.697Z,6.81
2023-03-05T01:26:52.182Z,6.84
2023-03-05T01:29:18.706Z,6.90
2023-03-05T01:31:45.335Z,6.69
2023-03-05T01:34:11.979Z,6.28
2023-03-05T01:36:41.194Z,6.45
2023-03-05T01:39:08.270Z,6.49
2023-03-05T01:41:35.434Z,6.62
2023-03-05T01:44:02.322Z,6.64
2023-03-05T01:46:34.932Z,6.39
2023-03-05T01:49:06.593Z,6.65
2023-03-05T01:51:40.113Z,6.43
2023-03-05T01:54:08.861Z,6.77
2023-03-05T01:56:35.944Z,6.61
2023-03-05T01:59:05.171Z,6.67
2023-03-05T02:01:37.144Z,6.78
2023-03-05T02:04:04.066Z,7.05
2023-03-05T02:06:30.795Z,6.68
2023-03-05T02:08:57.280Z,6.88
2023-03-05T02:11:23.808Z,6.88
2023-03-05T02:13:50.402Z,6.69
2023-03-05T02:16:17.022Z,6.82
2023-03-05T02:18:43.702Z,6.97
2023-03-05T02:21:11.472Z,7.16
2023-03-05T02:23:38.994Z,7.07
2023-03-05T02:26:08.657Z,7.19
2023-03-05T02:29:02.922Z,7.22
2023-03-05T02:31:31.095Z,7.25
2023-03-05T02:33:57.669Z,7.08
2023-03-05T02:36:25.048Z,7.10
2023-03-05T02:38:52.861Z,7.10
2023-03-05T02:41:19.602Z,7.13
2023-03-05T02:43:46.099Z,7.24
2023-03-05T02:46:12.669Z,7.03
2023-03-05T02:48:39.395Z,7.04
2023-03-05T02:51:07.840Z,7.15
2023-03-05T02:53:34.637Z,7.15
2023-03-05T02:56:01.322Z,7.02
2023-03-05T02:58:27.868Z,7.16
2023-03-05T03:00:54.391Z,7.08
2023-03-05T03:03:21.101Z,7.03
2023-03-05T03:05:47.711Z,6.95
2023-03-05T03:08:15.055Z,6.96
2023-03-05T03:10:41.635Z,6.82
2023-03-05T03:13:08.234Z,6.76
2023-03-05T03:15:34.797Z,6.71
2023-03-05T03:18:01.313Z,6.78
2023-03-05T03:20:27.885Z,6.92
2023-03-05T03:22:54.513Z,6.83
2023-03-05T03:25:23.012Z,7.00
2023-03-05T03:27:49.808Z,7.03
2023-03-05T03:30:16.565Z,6.80
2023-03-05T03:32:43.415Z,6.86
2023-03-05T03:35:11.327Z,6.70
2023-03-05T03:37:38.265Z,6.73
2023-03-05T03:40:06.078Z,6.49
2023-03-05T03:42:33.244Z,6.52
2023-03-05T03:45:00.492Z,6.01
2023-03-05T03:47:27.028Z,5.97
2023-03-05T03:49:54.655Z,6.11
2023-03-05T03:52:22.907Z,6.12
2023-03-05T03:54:52.296Z,6.05
2023-03-05T03:57:19.331Z,5.83
2023-03-05T03:59:46.089Z,6.02
2023-03-05T04:02:13.122Z,6.13
2023-03-05T04:04:39.768Z,6.15
2023-03-05T04:07:06.370Z,6.27
2023-03-05T04:09:32.933Z,6.40
2023-03-05T04:11:59.381Z,6.33
2023-03-05T04:14:26.601Z,6.23
2023-03-05T04:16:53.563Z,6.31
2023-03-05T04:19:20.155Z,5.94
2023-03-05T04:21:46.774Z,6.17
2023-03-05T04:24:13.317Z,5.78
2023-03-05T04:26:39.886Z,5.75
2023-03-05T04:29:06.429Z,5.72
2023-03-05T04:31:32.992Z,6.05
2023-03-05T04:34:00.035Z,5.76
2023-03-05T04:36:26.651Z,5.52
2023-03-05T04:38:53.174Z,5.72
2023-03-05T04:41:19.706Z,5.77
2023-03-05T04:43:46.224Z,5.77
2023-03-05T04:46:12.796Z,6.00
2023-03-05T04:48:39.448Z,5.87
2023-03-05T04:51:06.051Z,5.58
2023-03-05T04:53:32.735Z,5.64
2023-03-05T04:56:01.505Z,5.43
2023-03-05T04:58:28.131Z,5.47
2023-03-05T05:00:54.691Z,5.30
2023-03-05T05:03:21.213Z,5.45
2023-03-05T05:05:54.624Z,5.41
2023-03-05T05:08:21.139Z,5.45
2023-03-05T05:10:55.827Z,5.53
2023-03-05T05:13:22.317Z,5.92
2023-03-05T05:15:48.879Z,5.82
2023-03-05T05:18:15.353Z,5.40
2023-03-05T05:20:42.219Z,5.51
2023-03-05T05:23:08.765Z,5.44
2023-03-05T05:25:35.284Z,5.67
2023-03-05T05:28:01.898Z,5.61
2023-03-05T05:30:28.479Z,5.72
2023-03-05T05:32:54.984Z,6.01
2023-03-05T05:35:21.575Z,6.00
2023-03-05T05:37:48.108Z,6.11
2023-03-05T05:40:14.824Z,5.92
2023-03-05T05:42:41.359Z,6.10
2023-03-05T05:45:08.806Z,5.90
2023-03-05T05:47:35.322Z,5.87
2023-03-05T05:50:01.885Z,5.98
2023-03-05T05:52:28.482Z,6.01
2023-03-05T05:54:55.029Z,6.15
2023-03-05T05:57:21.564Z,6.28
2023-03-05T05:59:48.065Z,6.24
2023-03-05T06:02:14.821Z,6.25
2023-03-05T06:04:41.339Z,6.15
2023-03-05T06:07:08.561Z,6.05
2023-03-05T06:09:36.380Z,5.93
2023-03-05T06:12:03.206Z,5.98
2023-03-05T06:14:29.866Z,6.02
2023-03-05T06:16:56.484Z,6.00
2023-03-05T06:19:23.101Z,5.97
2023-03-05T06:21:49.645Z,5.97
2023-03-05T06:24:16.331Z,6.02
2023-03-05T06:26:42.893Z,6.24
2023-03-05T06:29:09.475Z,6.18
2023-03-05T06:31:37.314Z,6.22
2023-03-05T06:34:04.154Z,6.41
2023-03-05T06:36:30.866Z,6.42
2023-03-05T06:38:58.380Z,6.50
2023-03-05T06:41:27.732Z,6.60
2023-03-05T06:43:55.502Z,6.47
2023-03-05T06:46:28.171Z,6.46
2023-03-05T06:48:55.880Z,6.57
2023-03-05T06:51:28.547Z,6.19
2023-03-05T06:53:55.950Z,6.46
2023-03-05T06:56:23.049Z,6.35
2023-03-05T06:58:51.412Z,6.41
2023-03-05T07:01:19.313Z,6.24
2023-03-05T07:03:49.453Z,6.36
2023-03-05T07:06:16.070Z,6.34
2023-03-05T07:08:44.780Z,6.21
2023-03-05T07:11:13.519Z,6.46
2023-03-05T07:13:40.064Z,6.28
2023-03-05T07:16:08.466Z,6.30
2023-03-05T07:18:35.587Z,6.17
2023-03-05T07:21:04.827Z,6.47
2023-03-05T07:23:31.719Z,6.29
2023-03-05T07:26:01.828Z,6.02
2023-03-05T07:28:28.381Z,6.37
2023-03-05T07:30:57.703Z,6.38
2023-03-05T07:33:25.448Z,6.06
2023-03-05T07:35:51.954Z,6.03
2023-03-05T07:38:18.719Z,6.01
2023-03-05T07:40:45.483Z,6.24
2023-03-05T07:43:12.329Z,5.97
2023-03-05T07:45:44.003Z,5.98
2023-03-05T07:48:16.541Z,6.17
2023-03-05T07:50:43.156Z,6.23
2023-03-05T07:53:10.401Z,6.34
2023-03-05T07:55:45.670Z,6.43
2023-03-05T07:58:13.859Z,6.21
2023-03-05T08:00:40.858Z,6.17
2023-03-05T08:03:07.586Z,6.41
2023-03-05T08:05:34.298Z,6.63
2023-03-05T08:08:00.894Z,6.47
2023-03-05T08:10:27.498Z,6.44
2023-03-05T08:12:54.056Z,6.27
2023-03-05T08:15:20.710Z,6.13
2023-03-05T08:17:47.353Z,6.20
2023-03-05T08:20:14.151Z,6.57
2023-03-05T08:22:40.691Z,6.67
2023-03-05T08:25:08.109Z,6.64
2023-03-05T08:27:42.493Z,6.83
2023-03-05T08:30:12.450Z,6.91
2023-03-05T08:32:39.145Z,6.61
2023-03-05T08:35:06.713Z,6.74
2023-03-05T08:37:33.644Z,6.59
2023-03-05T08:40:00.124Z,6.48
2023-03-05T08:42:26.693Z,6.95
2023-03-05T08:44:53.272Z,6.95
2023-03-05T08:47:20.432Z,6.84
2023-03-05T08:49:47.390Z,6.49
2023-03-05T08:52:14.050Z,6.83
2023-03-05T08:54:40.680Z,6.32
2023-03-05T08:57:07.194Z,6.58
2023-03-05T08:59:34.213Z,6.69
2023-03-05T09:02:02.030Z,6.94
2023-03-05T09:04:28.933Z,7.02
2023-03-05T09:06:56.875Z,7.22
2023-03-05T09:09:23.905Z,7.14
2023-03-05T09:11:52.005Z,6.96
2023-03-05T09:14:19.163Z,7.26
2023-03-05T09:16:46.135Z,7.20
2023-03-05T09:19:14.973Z,7.22
2023-03-05T09:21:42.580Z,6.93
2023-03-05T09:24:09.893Z,7.51
2023-03-05T09:26:36.649Z,7.00
2023-03-05T09:29:07.531Z,6.81
2023-03-05T09:31:36.368Z,6.95
2023-03-05T09:34:03.118Z,7.07
2023-03-05T09:36:30.685Z,7.31
2023-03-05T09:38:57.543Z,7.14
2023-03-05T09:41:57.553Z,7.21
2023-03-05T09:44:38.504Z,7.18
2023-03-05T09:47:29.631Z,7.19
2023-03-05T09:50:04.860Z,7.09
2023-03-05T09:52:36.984Z,7.41
2023-03-05T09:55:09.794Z,6.76
2023-03-05T09:57:42.444Z,7.08
2023-03-05T10:00:40.344Z,7.39
2023-03-05T10:03:16.083Z,7.39
2023-03-05T10:06:04.628Z,7.69
2023-03-05T10:08:53.941Z,7.90
2023-03-05T10:11:36.361Z,7.82
2023-03-05T10:14:04.384Z,8.08
2023-03-05T10:16:46.701Z,8.15
2023-03-05T10:19:50.549Z,8.12
2023-03-05T10:22:54.963Z,8.01
2023-03-05T10:25:30.425Z,7.92
2023-03-05T10:28:05.820Z,8.43
2023-03-05T10:30:38.967Z,9.00
2023-03-05T10:33:20.253Z,8.91
2023-03-05T10:36:48.124Z,8.34
2023-03-05T10:39:39.969Z,8.22
2023-03-05T10:42:11.004Z,7.98
2023-03-05T10:44:43.307Z,8.25
2023-03-05T10:47:22.867Z,8.47
2023-03-05T10:49:54.794Z,8.30
2023-03-05T10:52:36.648Z,7.78
2023-03-05T10:55:17.782Z,7.42
2023-03-05T10:57:44.611Z,7.62
2023-03-05T11:00:19.447Z,7.53
2023-03-05T11:03:01.658Z,7.33
2023-03-05T11:05:39.734Z,7.63
2023-03-05T11:08:33.985Z,7.65
2023-03-05T11:11:21.816Z,7.40
2023-03-05T11:13:48.310Z,7.04
2023-03-05T11:16:40.076Z,7.41
2023-03-05T11:19:15.822Z,7.92
2023-03-05T11:21:44.062Z,7.78
2023-03-05T11:24:18.803Z,7.70
2023-03-05T11:26:56.559Z,7.22
2023-03-05T11:29:27.000Z,7.03
2023-03-05T11:31:54.164Z,7.02
2023-03-05T11:34:20.633Z,7.27
2023-03-05T11:36:56.966Z,7.12
2023-03-05T11:39:25.169Z,6.90
2023-03-05T11:42:05.114Z,6.74
2023-03-05T11:44:54.707Z,6.42
2023-03-05T11:47:21.203Z,6.31
2023-03-05T11:49:50.759Z,6.70
2023-03-05T11:52:32.125Z,6.88
2023-03-05T11:55:07.179Z,7.00
2023-03-05T11:57:43.550Z,6.91
2023-03-05T12:00:18.994Z,6.85
2023-03-05T12:02:49.634Z,6.96
2023-03-05T12:05:17.037Z,7.43
2023-03-05T12:07:48.814Z,7.10
2023-03-05T12:10:26.224Z,6.89
2023-03-05T12:13:12.101Z,7.34
2023-03-05T12:15:46.399Z,7.40
2023-03-05T12:18:45.265Z,7.54
2023-03-05T12:21:18.296Z,7.66
2023-03-05T12:23:59.071Z,7.96
2023-03-05T12:26:54.251Z,8.00
2023-03-05T12:29:43.271Z,8.25
2023-03-05T12:32:25.551Z,8.96
2023-03-05T12:35:06.169Z,9.05
2023-03-05T12:37:32.663Z,9.20
2023-03-05T12:40:25.559Z,8.87
2023-03-05T12:42:53.369Z,8.88
2023-03-05T12:45:36.810Z,8.97
2023-03-05T12:48:03.600Z,9.10
2023-03-05T12:50:30.148Z,8.64
2023-03-05T12:53:13.801Z,8.43
2023-03-05T12:55:45.332Z,8.05
2023-03-05T12:58:17.080Z,8.18
2023-03-05T13:00:49.328Z,7.92
2023-03-05T13:03:30.805Z,8.29
2023-03-05T13:06:00.441Z,8.00
2023-03-05T13:08:30.327Z,8.52
2023-03-05T13:11:00.898Z,7.65
2023-03-05T13:13:29.349Z,7.84
2023-03-05T13:15:56.911Z,8.12
2023-03-05T13:18:25.811Z,8.58
2023-03-05T13:21:04.664Z,8.94
2023-03-05T13:23:32.481Z,8.53
2023-03-05T13:26:18.697Z,8.43
2023-03-05T13:29:11.279Z,8.05
2023-03-05T13:31:59.526Z,7.71
2023-03-05T13:34:41.086Z,7.62
2023-03-05T13:37:18.708Z,7.79
2023-03-05T13:40:00.579Z,7.47
2023-03-05T13:42:31.349Z,7.22
2023-03-05T13:45:05.856Z,7.59
2023-03-05T13:47:35.300Z,7.80
2023-03-05T13:50:21.761Z,7.83
2023-03-05T13:52:48.312Z,7.75
2023-03-05T13:55:17.062Z,8.05
2023-03-05T13:57:46.553Z,8.23
2023-03-05T14:00:30.307Z,8.39
2023-03-05T14:03:00.941Z,8.45
2023-03-05T14:05:28.449Z,8.32
2023-03-05T14:07:56.640Z,8.16
2023-03-05T14:10:38.101Z,8.13
2023-03-05T14:13:19.084Z,8.21
2023-03-05T14:16:24.118Z,8.21
2023-03-05T14:18:59.355Z,8.24
2023-03-05T14:21:25.962Z,8.34
2023-03-05T14:23:54.816Z,8.38
2023-03-05T14:26:37.612Z,8.40
2023-03-05T14:29:15.416Z,8.07
2023-03-05T14:31:56.180Z,7.98
2023-03-05T14:34:33.180Z,7.78
2023-03-05T14:37:06.296Z,7.99
2023-03-05T14:39:46.632Z,7.86
2023-03-05T14:42:38.999Z,7.96
2023-03-05T14:45:14.077Z,8.18
2023-03-05T14:47:41.140Z,7.44
2023-03-05T14:50:10.512Z,7.63
2023-03-05T14:52:37.217Z,7.73
2023-03-05T14:55:04.962Z,7.89
2023-03-05T14:57:32.263Z,7.60
2023-03-05T14:59:59.012Z,7.81
2023-03-05T15:02:26.917Z,7.72
2023-03-05T15:04:53.674Z,7.63
2023-03-05T15:07:28.945Z,7.70
2023-03-05T15:09:56.405Z,7.69
2023-03-05T15:12:24.647Z,7.72
2023-03-05T15:14:52.915Z,7.93
2023-03-05T15:17:32.523Z,7.74
2023-03-05T15:19:59.102Z,7.39
2023-03-05T15:22:25.621Z,7.91
2023-03-05T15:24:52.291Z,7.50
2023-03-05T15:27:18.996Z,7.54
2023-03-05T15:29:45.625Z,7.55
2023-03-05T15:32:12.250Z,7.23
2023-03-05T15:34:38.860Z,7.58
2023-03-05T15:37:05.479Z,7.21
2023-03-05T15:39:32.061Z,7.48
2023-03-05T15:41:59.086Z,7.71
2023-03-05T15:44:26.388Z,7.38
2023-03-05T15:46:53.327Z,7.48
2023-03-05T15:49:20.272Z,7.60
2023-03-05T15:51:46.821Z,7.38
2023-03-05T15:54:13.372Z,7.59
2023-03-05T15:56:40.687Z,7.35
2023-03-05T15:59:09.287Z,6.98
2023-03-05T16:01:39.126Z,7.33
2023-03-05T16:04:06.276Z,7.26
2023-03-05T16:06:34.103Z,7.38
2023-03-05T16:09:03.736Z,7.44
2023-03-05T16:11:33.984Z,7.34
2023-03-05T16:14:04.208Z,7.27
2023-03-05T16:16:32.745Z,7.29
2023-03-05T16:19:00.427Z,7.51
2023-03-05T16:21:27.067Z,7.14
2023-03-05T16:23:53.536Z,7.33
2023-03-05T16:26:20.094Z,7.34
2023-03-05T16:28:46.707Z,7.03
2023-03-05T16:31:13.368Z,7.18
2023-03-05T16:33:39.940Z,6.98
2023-03-05T16:36:25.102Z,7.10
2023-03-05T16:38:55.085Z,7.37
2023-03-05T16:41:24.378Z,7.09
2023-03-05T16:43:53.504Z,7.09
2023-03-05T16:46:20.317Z,7.20
2023-03-05T16:48:46.958Z,7.53
2023-03-05T16:51:13.718Z,7.25
2023-03-05T16:53:40.837Z,6.92
2023-03-05T16:56:09.090Z,7.10
2023-03-05T16:58:37.153Z,6.67
2023-03-05T17:01:08.898Z,6.54
2023-03-05T17:03:35.513Z,6.83
2023-03-05T17:06:02.065Z,6.84
2023-03-05T17:08:28.556Z,6.80
2023-03-05T17:10:55.104Z,6.69
2023-03-05T17:13:21.624Z,6.60
2023-03-05T17:15:48.143Z,6.58
2023-03-05T17:18:14.696Z,6.77
2023-03-05T17:20:41.350Z,6.58
2023-03-05T17:23:07.882Z,6.65
2023-03-05T17:25:36.946Z,6.94
2023-03-05T17:28:03.624Z,6.81
2023-03-05T17:30:33.213Z,6.93
2023-03-05T17:32:59.842Z,6.81
2023-03-05T17:35:26.464Z,6.73
2023-03-05T17:37:55.173Z,6.82
2023-03-05T17:40:22.849Z,6.51
2023-03-05T17:42:49.824Z,6.41
2023-03-05T17:45:16.811Z,6.47
2023-03-05T17:47:43.732Z,6.70
2023-03-05T17:50:12.240Z,7.03
2023-03-05T17:52:41.016Z,7.00
2023-03-05T17:55:10.535Z,6.99
2023-03-05T17:57:41.289Z,6.86
2023-03-05T18:00:29.686Z,6.81
2023-03-05T18:02:58.056Z,7.06
2023-03-05T18:05:25.463Z,7.02
2023-03-05T18:07:52.439Z,6.85
2023-03-05T18:10:21.159Z,7.07
2023-03-05T18:12:50.615Z,7.01
2023-03-05T18:15:19.046Z,7.03
2023-03-05T18:17:45.836Z,7.06
2023-03-05T18:20:31.073Z,7.03
2023-03-05T18:22:58.985Z,7.01
2023-03-05T18:25:30.837Z,6.87
2023-03-05T18:27:59.546Z,6.72
2023-03-05T18:30:26.466Z,6.88
2023-03-05T18:32:53.130Z,7.11
2023-03-05T18:35:19.837Z,7.04
2023-03-05T18:37:46.472Z,7.02
2023-03-05T18:40:18.702Z,7.02
2023-03-05T18:42:45.821Z,7.06
2023-03-05T18:45:17.763Z,7.03
2023-03-05T18:47:44.584Z,7.08
2023-03-05T18:50:14.846Z,7.13
2023-03-05T18:52:42.753Z,7.03
2023-03-05T18:55:18.842Z,6.70
2023-03-05T18:57:45.482Z,6.66
2023-03-05T19:00:20.574Z,6.88
2023-03-05T19:02:47.348Z,6.60
2023-03-05T19:05:14.971Z,6.86
2023-03-05T19:07:42.390Z,6.82
2023-03-05T19:10:10.559Z,6.57
2023-03-05T19:12:45.383Z,6.57
2023-03-05T19:15:13.207Z,6.31
2023-03-05T19:17:39.881Z,6.82
2023-03-05T19:20:07.803Z,6.51
2023-03-05T19:22:34.435Z,6.71
2023-03-05T19:25:01.662Z,6.58
2023-03-05T19:27:28.508Z,6.47
2023-03-05T19:29:55.081Z,6.44
2023-03-05T19:32:21.936Z,6.18
2023-03-05T19:34:48.522Z,6.25
2023-03-05T19:37:15.871Z,6.25
2023-03-05T19:39:42.625Z,6.38
2023-03-05T19:42:09.247Z,6.18
2023-03-05T19:44:36.027Z,6.30
2023-03-05T19:47:03.021Z,6.61
2023-03-05T19:49:29.895Z,6.30
2023-03-05T19:51:56.454Z,6.66
2023-03-05T19:54:23.068Z,6.87
2023-03-05T19:56:51.814Z,6.70
2023-03-05T19:59:21.047Z,6.62
2023-03-05T20:01:48.756Z,6.68
2023-03-05T20:04:18.284Z,6.44
2023-03-05T20:06:44.845Z,6.40
2023-03-05T20:09:11.473Z,6.29
2023-03-05T20:11:38.318Z,6.44
2023-03-05T20:14:05.771Z,6.20
2023-03-05T20:16:37.692Z,6.01
2023-03-05T20:19:06.997Z,6.02
2023-03-05T20:21:41.380Z,6.11
2023-03-05T20:24:11.781Z,6.32
2023-03-05T20:26:41.182Z,6.11
2023-03-05T20:29:09.013Z,6.16
2023-03-05T20:31:37.189Z,6.12
2023-03-05T20:34:06.181Z,5.72
2023-03-05T20:36:34.801Z,6.07
2023-03-05T20:39:03.294Z,6.15
2023-03-05T20:41:31.066Z,6.34
2023-03-05T20:43:57.845Z,6.35
2023-03-05T20:46:30.446Z,6.26
2023-03-05T20:48:59.054Z,6.30
2023-03-05T20:51:29.903Z,6.31
2023-03-05T20:54:02.272Z,6.21
2023-03-05T20:56:32.275Z,6.38
2023-03-05T20:59:02.763Z,6.35
2023-03-05T21:01:31.130Z,6.19
2023-03-05T21:03:57.668Z,6.27
2023-03-05T21:06:25.222Z,6.28
2023-03-05T21:08:51.820Z,6.65
2023-03-05T21:11:18.859Z,6.27
2023-03-05T21:13:45.472Z,6.44
2023-03-05T21:16:16.682Z,6.76
2023-03-05T21:18:43.260Z,6.57
2023-03-05T21:21:09.813Z,6.16
2023-03-05T21:23:37.082Z,6.02
2023-03-05T21:26:04.180Z,5.85
2023-03-05T21:28:31.777Z,6.06
2023-03-05T21:30:58.548Z,5.77
2023-03-05T21:33:28.391Z,5.94
2023-03-05T21:35:57.873Z,5.97
2023-03-05T21:38:25.597Z,5.89
2023-03-05T21:40:53.869Z,5.55
2023-03-05T21:43:22.510Z,5.57
2023-03-05T21:45:52.511Z,5.56
2023-03-05T21:48:20.231Z,6.03
2023-03-05T21:50:46.953Z,6.45
2023-03-05T21:53:14.644Z,6.07
2023-03-05T21:55:54.149Z,6.19
2023-03-05T21:58:20.671Z,6.10
2023-03-05T22:00:47.215Z,5.86
2023-03-05T22:03:13.714Z,5.87
2023-03-05T22:05:42.753Z,5.96
2023-03-05T22:08:09.292Z,5.83
2023-03-05T22:10:35.974Z,5.93
2023-03-05T22:13:12.459Z,6.01
2023-03-05T22:15:53.972Z,5.88
2023-03-05T22:18:29.510Z,5.74
2023-03-05T22:20:57.806Z,5.37
2023-03-05T22:23:29.806Z,5.62
2023-03-05T22:26:00.715Z,5.79
2023-03-05T22:28:27.551Z,5.58
2023-03-05T22:30:54.705Z,5.73
2023-03-05T22:33:23.058Z,5.73
2023-03-05T22:35:50.252Z,5.60
2023-03-05T22:38:16.949Z,5.57
2023-03-05T22:40:46.340Z,5.53
2023-03-05T22:43:14.041Z,5.54
2023-03-05T22:45:40.879Z,5.47
2023-03-05T22:48:09.877Z,5.56
2023-03-05T22:50:41.396Z,5.67
2023-03-05T22:53:08.314Z,5.69
2023-03-05T22:55:39.307Z,5.63
2023-03-05T22:58:05.969Z,5.59
2023-03-05T23:00:32.558Z,5.57
2023-03-05T23:02:59.173Z,5.34
2023-03-05T23:05:25.739Z,5.39
2023-03-05T23:07:52.333Z,5.35
2023-03-05T23:10:24.883Z,5.34
2023-03-05T23:12:53.943Z,5.30
2023-03-05T23:15:26.730Z,5.30
2023-03-05T23:17:53.591Z,5.42
2023-03-05T23:20:22.873Z,5.35
2023-03-05T23:22:52.741Z,5.49
2023-03-05T23:25:20.416Z,5.25
2023-03-05T23:27:46.921Z,5.30
2023-03-05T23:30:21.384Z,5.24
2023-03-05T23:32:47.859Z,5.18
2023-03-05T23:35:16.768Z,5.19
2023-03-05T23:37:43.352Z,5.41
2023-03-05T23:40:14.947Z,5.43
2023-03-05T23:42:42.512Z,5.37
2023-03-05T23:45:11.302Z,5.25
2023-03-05T23:47:38.101Z,5.18
2023-03-05T23:50:06.972Z,5.23
2023-03-05T23:52:36.291Z,5.52
2023-03-05T23:55:03.085Z,5.01
2023-03-05T23:57:30.183Z,5.31
2023-03-05T23:59:56.736Z,5.31
